createdAt,value
2023-08-18T00:00:01.526Z,21.51
2023-08-18T00:02:28.304Z,21.52
2023-08-18T00:04:55.048Z,21.52
2023-08-18T00:07:21.750Z,21.51
2023-08-18T00:09:48.481Z,21.48
2023-08-18T00:12:15.157Z,21.44
2023-08-18T00:14:43.252Z,21.40
2023-08-18T00:17:09.968Z,21.36
2023-08-18T00:19:36.714Z,21.32
2023-08-18T00:22:03.633Z,21.29
2023-08-18T00:24:30.367Z,21.27
2023-08-18T00:26:57.082Z,21.21
2023-08-18T00:29:23.862Z,21.17
2023-08-18T00:31:51.948Z,21.10
2023-08-18T00:34:18.645Z,21.05
2023-08-18T00:36:45.308Z,21.01
2023-08-18T00:39:12.071Z,20.96
2023-08-18T00:41:38.763Z,20.90
2023-08-18T00:44:05.778Z,20.87
2023-08-18T00:46:32.929Z,20.85
2023-08-18T00:49:02.378Z,20.84
2023-08-18T00:51:29.463Z,20.80
2023-08-18T00:53:56.405Z,20.79
2023-08-18T00:56:23.514Z,20.78
2023-08-18T00:58:50.314Z,20.75
2023-08-18T01:01:17.280Z,20.73
2023-08-18T01:03:44.876Z,20.70
2023-08-18T01:06:12.992Z,20.67
2023-08-18T01:08:40.089Z,20.65
2023-08-18T01:11:12.742Z,20.63
2023-08-18T01:13:48.259Z,20.61
2023-08-18T01:16:18.882Z,20.59
2023-08-18T01:18:45.937Z,20.54
2023-08-18T01:21:15.226Z,20.53
2023-08-18T01:23:43.271Z,20.49
2023-08-18T01:26:10.064Z,20.45
2023-08-18T01:28:37.081Z,20.40
2023-08-18T01:31:05.578Z,20.36
2023-08-18T01:33:35.776Z,20.34
2023-08-18T01:36:05.782Z,20.32
2023-08-18T01:38:33.197Z,20.31
2023-08-18T01:41:01.577Z,20.31
2023-08-18T01:43:28.298Z,20.30
2023-08-18T01:45:55.085Z,20.28
2023-08-18T01:48:21.794Z,20.26
2023-08-18T01:50:48.453Z,20.25
2023-08-18T01:53:15.160Z,20.23
2023-08-18T01:55:41.858Z,20.22
2023-08-18T01:58:09.918Z,20.19
2023-08-18T02:00:36.660Z,20.11
2023-08-18T02:03:03.617Z,20.08
2023-08-18T02:05:30.354Z,20.06
2023-08-18T02:07:58.458Z,20.04
2023-08-18T02:10:25.227Z,19.99
2023-08-18T02:12:51.922Z,19.98
2023-08-18T02:15:20.026Z,19.95
2023-08-18T02:17:46.734Z,19.99
2023-08-18T02:20:13.522Z,19.97
2023-08-18T02:22:40.267Z,19.94
2023-08-18T02:25:07.398Z,19.93
2023-08-18T02:27:34.101Z,19.91
2023-08-18T02:30:00.830Z,19.89
2023-08-18T02:32:28.924Z,19.87
2023-08-18T02:34:55.635Z,19.86
2023-08-18T02:37:22.325Z,19.84
2023-08-18T02:39:49.051Z,19.83
2023-08-18T02:42:15.745Z,19.82
2023-08-18T02:44:42.496Z,19.82
2023-08-18T02:47:09.227Z,19.82
2023-08-18T02:49:37.326Z,19.83
2023-08-18T02:52:04.480Z,19.74
2023-08-18T02:54:31.163Z,19.69
2023-08-18T02:56:57.887Z,19.70
2023-08-18T02:59:24.601Z,19.69
2023-08-18T03:01:51.445Z,19.65
2023-08-18T03:04:18.158Z,19.64
2023-08-18T03:06:46.381Z,19.62
2023-08-18T03:09:13.045Z,19.62
2023-08-18T03:11:39.764Z,19.61
2023-08-18T03:14:06.802Z,19.62
2023-08-18T03:16:33.558Z,19.59
2023-08-18T03:19:00.292Z,19.59
2023-08-18T03:21:26.983Z,19.55
2023-08-18T03:23:55.084Z,19.53
2023-08-18T03:26:21.759Z,19.50
2023-08-18T03:28:48.466Z,19.51
2023-08-18T03:31:15.213Z,19.48
2023-08-18T03:33:41.940Z,19.46
2023-08-18T03:36:08.682Z,19.44
2023-08-18T03:38:35.397Z,19.44
2023-08-18T03:41:04.758Z,19.42
2023-08-18T03:43:31.704Z,19.37
2023-08-18T03:45:59.663Z,19.34
2023-08-18T03:48:26.450Z,19.28
2023-08-18T03:50:53.338Z,19.27
2023-08-18T03:53:20.054Z,19.25
2023-08-18T03:55:50.930Z,19.25
2023-08-18T03:58:19.116Z,19.24
2023-08-18T04:00:45.808Z,19.25
2023-08-18T04:03:12.577Z,19.24
2023-08-18T04:05:45.471Z,19.21
2023-08-18T04:08:12.224Z,19.19
2023-08-18T04:10:39.406Z,19.15
2023-08-18T04:13:06.148Z,19.07
2023-08-18T04:15:34.391Z,19.00
2023-08-18T04:18:01.195Z,18.98
2023-08-18T04:20:27.907Z,18.98
2023-08-18T04:22:54.814Z,19.00
2023-08-18T04:25:21.699Z,19.02
2023-08-18T04:27:48.523Z,19.04
2023-08-18T04:30:15.258Z,19.07
2023-08-18T04:32:43.398Z,19.11
2023-08-18T04:35:10.138Z,19.15
2023-08-18T04:37:36.959Z,19.20
2023-08-18T04:40:04.368Z,19.20
2023-08-18T04:42:31.336Z,19.18
2023-08-18T04:44:58.534Z,19.16
2023-08-18T04:47:25.315Z,19.20
2023-08-18T04:49:53.442Z,19.28
2023-08-18T04:52:20.223Z,19.35
2023-08-18T04:54:47.106Z,19.38
2023-08-18T04:57:13.831Z,19.38
2023-08-18T04:59:40.574Z,19.41
2023-08-18T05:02:07.241Z,19.47
2023-08-18T05:04:33.993Z,19.51
2023-08-18T05:07:04.010Z,19.59
2023-08-18T05:09:32.021Z,19.65
2023-08-18T05:11:58.725Z,19.73
2023-08-18T05:14:25.654Z,19.80
2023-08-18T05:16:52.477Z,19.83
2023-08-18T05:19:19.269Z,19.85
2023-08-18T05:21:46.033Z,19.87
2023-08-18T05:24:14.120Z,19.88
2023-08-18T05:26:40.888Z,19.93
2023-08-18T05:29:07.566Z,19.98
2023-08-18T05:31:34.318Z,20.04
2023-08-18T05:34:01.014Z,20.07
2023-08-18T05:36:27.736Z,20.13
2023-08-18T05:38:54.468Z,20.18
2023-08-18T05:41:22.635Z,20.23
2023-08-18T05:43:49.370Z,20.31
2023-08-18T05:46:16.133Z,20.42
2023-08-18T05:48:42.840Z,20.53
2023-08-18T05:51:09.811Z,20.60
2023-08-18T05:53:36.514Z,20.65
2023-08-18T05:56:03.279Z,20.67
2023-08-18T05:58:31.391Z,20.74
2023-08-18T06:00:58.164Z,20.80
2023-08-18T06:03:24.959Z,20.89
2023-08-18T06:05:51.689Z,20.99
2023-08-18T06:08:18.604Z,21.07
2023-08-18T06:10:46.601Z,21.16
2023-08-18T06:13:13.334Z,21.34
2023-08-18T06:15:41.446Z,21.50
2023-08-18T06:18:08.141Z,21.62
2023-08-18T06:20:34.873Z,21.77
2023-08-18T06:23:01.628Z,21.85
2023-08-18T06:25:28.350Z,21.86
2023-08-18T06:27:55.092Z,21.90
2023-08-18T06:30:22.136Z,21.96
2023-08-18T06:32:50.881Z,22.09
2023-08-18T06:35:17.660Z,22.22
2023-08-18T06:37:44.664Z,22.39
2023-08-18T06:40:11.837Z,22.54
2023-08-18T06:42:38.667Z,22.67
2023-08-18T06:45:06.526Z,22.82
2023-08-18T06:47:34.790Z,22.94
2023-08-18T06:50:04.891Z,23.03
2023-08-18T06:52:31.825Z,23.11
2023-08-18T06:54:58.675Z,23.19
2023-08-18T06:57:25.886Z,23.26
2023-08-18T06:59:52.792Z,23.45
2023-08-18T07:02:19.637Z,23.66
2023-08-18T07:04:46.662Z,23.87
2023-08-18T07:07:14.881Z,23.93
2023-08-18T07:09:41.593Z,24.10
2023-08-18T07:12:08.813Z,24.30
2023-08-18T07:14:35.509Z,24.38
2023-08-18T07:17:02.186Z,24.43
2023-08-18T07:19:28.970Z,24.31
2023-08-18T07:21:55.688Z,24.10
2023-08-18T07:24:23.772Z,24.12
2023-08-18T07:26:50.541Z,24.16
2023-08-18T07:29:17.260Z,24.25
2023-08-18T07:31:44.058Z,24.36
2023-08-18T07:34:10.809Z,24.51
2023-08-18T07:36:37.593Z,24.58
2023-08-18T07:39:04.742Z,24.62
2023-08-18T07:41:32.828Z,24.63
2023-08-18T07:43:59.523Z,24.62
2023-08-18T07:46:26.265Z,24.65
2023-08-18T07:48:53.320Z,24.79
2023-08-18T07:51:20.174Z,24.92
2023-08-18T07:53:46.886Z,24.90
2023-08-18T07:56:13.806Z,25.07
2023-08-18T07:58:41.908Z,25.28
2023-08-18T08:01:08.615Z,25.46
2023-08-18T08:03:36.005Z,25.45
2023-08-18T08:06:02.796Z,25.45
2023-08-18T08:08:29.559Z,25.56
2023-08-18T08:10:56.227Z,25.75
2023-08-18T08:13:22.989Z,25.83
2023-08-18T08:15:51.102Z,25.82
2023-08-18T08:18:17.972Z,25.98
2023-08-18T08:20:45.037Z,26.16
2023-08-18T08:23:12.013Z,26.36
2023-08-18T08:25:39.477Z,26.53
2023-08-18T08:28:06.522Z,26.65
2023-08-18T08:30:36.491Z,26.68
2023-08-18T08:33:06.052Z,26.80
2023-08-18T08:35:33.349Z,26.91
2023-08-18T08:38:00.195Z,27.04
2023-08-18T08:40:27.889Z,27.12
2023-08-18T08:42:55.194Z,27.14
2023-08-18T08:45:22.624Z,27.23
2023-08-18T08:47:49.685Z,27.35
2023-08-18T08:50:19.030Z,27.46
2023-08-18T08:52:48.661Z,27.51
2023-08-18T08:55:17.686Z,27.69
2023-08-18T08:57:44.596Z,27.82
2023-08-18T09:00:12.067Z,27.84
2023-08-18T09:02:40.749Z,27.94
2023-08-18T09:05:08.124Z,28.01
2023-08-18T09:07:36.311Z,27.94
2023-08-18T09:10:03.253Z,27.93
2023-08-18T09:12:32.689Z,28.01
2023-08-18T09:15:00.506Z,28.16
2023-08-18T09:17:29.019Z,28.32
2023-08-18T09:19:58.930Z,28.44
2023-08-18T09:22:25.894Z,28.50
2023-08-18T09:24:54.048Z,28.45
2023-08-18T09:27:20.865Z,28.47
2023-08-18T09:29:47.807Z,28.65
2023-08-18T09:32:14.730Z,28.76
2023-08-18T09:34:43.962Z,28.83
2023-08-18T09:37:10.783Z,28.82
2023-08-18T09:39:39.189Z,28.88
2023-08-18T09:42:07.972Z,29.00
2023-08-18T09:44:34.930Z,28.97
2023-08-18T09:47:04.714Z,28.96
2023-08-18T09:49:34.836Z,29.05
2023-08-18T09:52:04.228Z,29.16
2023-08-18T09:54:32.783Z,29.30
2023-08-18T09:57:03.468Z,29.42
2023-08-18T09:59:35.069Z,29.47
2023-08-18T10:02:02.440Z,29.56
2023-08-18T10:04:34.413Z,29.67
2023-08-18T10:07:02.058Z,29.62
2023-08-18T10:09:29.001Z,29.44
2023-08-18T10:11:57.342Z,29.36
2023-08-18T10:14:24.989Z,29.43
2023-08-18T10:16:53.916Z,29.51
2023-08-18T10:19:48.219Z,29.61
2023-08-18T10:22:15.917Z,29.68
2023-08-18T10:24:44.945Z,29.79
2023-08-18T10:27:13.483Z,29.87
2023-08-18T10:29:43.380Z,29.97
2023-08-18T10:32:12.065Z,30.04
2023-08-18T10:34:38.905Z,30.03
2023-08-18T10:37:05.984Z,30.06
2023-08-18T10:39:32.985Z,30.05
2023-08-18T10:42:07.309Z,30.08
2023-08-18T10:44:34.048Z,30.14
2023-08-18T10:47:01.954Z,30.20
2023-08-18T10:49:30.195Z,30.28
2023-08-18T10:51:57.145Z,30.25
2023-08-18T10:54:24.002Z,30.25
2023-08-18T10:56:50.688Z,30.27
2023-08-18T10:59:18.699Z,30.36
2023-08-18T11:01:45.481Z,30.43
2023-08-18T11:04:12.270Z,30.43
2023-08-18T11:06:40.422Z,30.40
2023-08-18T11:09:07.177Z,30.48
2023-08-18T11:11:33.979Z,30.48
2023-08-18T11:14:00.749Z,30.42
2023-08-18T11:16:27.502Z,30.35
2023-08-18T11:18:54.464Z,30.31
2023-08-18T11:21:22.061Z,30.33
2023-08-18T11:23:50.167Z,30.33
2023-08-18T11:26:17.020Z,30.44
2023-08-18T11:28:43.764Z,30.49
2023-08-18T11:31:13.608Z,30.49
2023-08-18T11:33:40.545Z,30.45
2023-08-18T11:36:10.732Z,30.35
2023-08-18T11:38:37.468Z,30.34
2023-08-18T11:41:05.899Z,30.41
2023-08-18T11:43:32.718Z,30.46
2023-08-18T11:45:59.494Z,30.55
2023-08-18T11:48:28.098Z,30.58
2023-08-18T11:50:56.546Z,30.56
2023-08-18T11:53:23.894Z,30.61
2023-08-18T11:55:50.590Z,30.56
2023-08-18T11:58:22.868Z,30.46
2023-08-18T12:00:49.743Z,30.50
2023-08-18T12:03:21.519Z,30.56
2023-08-18T12:05:48.275Z,30.55
2023-08-18T12:08:15.053Z,30.56
2023-08-18T12:10:42.057Z,30.59
2023-08-18T12:13:08.889Z,30.54
2023-08-18T12:15:37.327Z,30.47
2023-08-18T12:18:04.463Z,30.51
2023-08-18T12:20:32.216Z,30.54
2023-08-18T12:22:58.956Z,30.54
2023-08-18T12:25:25.874Z,30.36
2023-08-18T12:27:53.127Z,30.42
2023-08-18T12:30:20.995Z,30.43
2023-08-18T12:32:50.568Z,30.51
2023-08-18T12:35:17.605Z,30.55
2023-08-18T12:37:44.390Z,30.55
2023-08-18T12:40:12.003Z,30.57
2023-08-18T12:42:38.987Z,30.65
2023-08-18T12:45:06.932Z,30.68
2023-08-18T12:47:33.802Z,30.66
2023-08-18T12:50:02.273Z,30.67
2023-08-18T12:52:29.137Z,30.64
2023-08-18T12:54:56.115Z,30.66
2023-08-18T12:57:23.062Z,30.66
2023-08-18T12:59:49.810Z,30.65
2023-08-18T13:02:16.518Z,30.65
2023-08-18T13:04:43.250Z,30.67
2023-08-18T13:07:11.462Z,30.64
2023-08-18T13:09:38.204Z,30.62
2023-08-18T13:12:05.291Z,30.58
2023-08-18T13:14:32.029Z,30.42
2023-08-18T13:16:59.718Z,30.45
2023-08-18T13:19:31.094Z,30.49
2023-08-18T13:21:58.940Z,30.53
2023-08-18T13:24:27.618Z,30.54
2023-08-18T13:26:54.459Z,30.53
2023-08-18T13:29:24.904Z,30.56
2023-08-18T13:31:52.570Z,30.58
2023-08-18T13:34:19.308Z,30.59
2023-08-18T13:36:45.996Z,30.64
2023-08-18T13:39:12.728Z,30.62
2023-08-18T13:41:40.884Z,30.56
2023-08-18T13:44:07.545Z,30.49
2023-08-18T13:46:34.292Z,30.46
2023-08-18T13:49:01.009Z,30.52
2023-08-18T13:51:27.860Z,30.58
2023-08-18T13:53:54.519Z,30.60
2023-08-18T13:56:21.290Z,30.65
2023-08-18T13:58:49.380Z,30.68
2023-08-18T14:01:16.140Z,30.70
2023-08-18T14:03:42.883Z,30.74
2023-08-18T14:06:09.618Z,30.78
2023-08-18T14:08:36.354Z,30.81
2023-08-18T14:11:03.195Z,30.83
2023-08-18T14:13:30.089Z,30.87
2023-08-18T14:15:58.278Z,30.90
2023-08-18T14:18:25.141Z,30.97
2023-08-18T14:20:51.929Z,30.90
2023-08-18T14:23:18.641Z,30.89
2023-08-18T14:25:45.381Z,30.90
2023-08-18T14:28:12.105Z,30.91
2023-08-18T14:30:38.860Z,30.92
2023-08-18T14:33:06.967Z,30.94
2023-08-18T14:35:33.725Z,30.98
2023-08-18T14:38:00.502Z,31.01
2023-08-18T14:40:27.236Z,31.06
2023-08-18T14:43:06.916Z,31.09
2023-08-18T14:45:40.773Z,31.10
2023-08-18T14:48:09.360Z,31.09
2023-08-18T14:50:36.308Z,31.08
2023-08-18T14:53:03.278Z,31.04
2023-08-18T14:55:29.981Z,31.03
2023-08-18T14:57:56.775Z,31.02
2023-08-18T15:00:23.648Z,31.06
2023-08-18T15:02:50.473Z,31.10
2023-08-18T15:05:18.636Z,31.12
2023-08-18T15:07:45.398Z,31.08
2023-08-18T15:10:12.111Z,31.05
2023-08-18T15:12:38.844Z,31.03
2023-08-18T15:15:06.574Z,31.02
2023-08-18T15:17:33.687Z,31.02
2023-08-18T15:20:00.731Z,31.03
2023-08-18T15:22:28.856Z,31.05
2023-08-18T15:24:55.858Z,31.04
2023-08-18T15:27:22.562Z,31.00
2023-08-18T15:29:49.401Z,30.99
2023-08-18T15:32:16.311Z,30.99
2023-08-18T15:34:43.161Z,30.95
2023-08-18T15:37:09.925Z,30.95
2023-08-18T15:39:38.080Z,30.95
2023-08-18T15:42:05.041Z,30.94
2023-08-18T15:44:31.748Z,30.92
2023-08-18T15:46:58.570Z,30.89
2023-08-18T15:49:25.281Z,30.89
2023-08-18T15:51:52.130Z,30.88
2023-08-18T15:54:21.180Z,30.86
2023-08-18T15:56:49.284Z,30.80
2023-08-18T15:59:16.057Z,30.84
2023-08-18T16:01:42.774Z,30.83
2023-08-18T16:04:09.557Z,30.81
2023-08-18T16:06:36.273Z,30.79
2023-08-18T16:09:03.113Z,30.77
2023-08-18T16:11:29.863Z,30.75
2023-08-18T16:14:14.126Z,30.75
2023-08-18T16:16:44.749Z,30.76
2023-08-18T16:19:11.559Z,30.71
2023-08-18T16:21:38.348Z,30.69
2023-08-18T16:24:05.574Z,30.67
2023-08-18T16:26:32.300Z,30.67
2023-08-18T16:29:00.446Z,30.66
2023-08-18T16:31:27.230Z,30.67
2023-08-18T16:33:54.655Z,30.63
2023-08-18T16:36:21.488Z,30.58
2023-08-18T16:38:48.202Z,30.57
2023-08-18T16:41:14.921Z,30.54
2023-08-18T16:43:41.642Z,30.56
2023-08-18T16:46:09.766Z,30.56
2023-08-18T16:48:36.607Z,30.56
2023-08-18T16:51:03.498Z,30.54
2023-08-18T16:53:30.208Z,30.51
2023-08-18T16:55:56.969Z,30.51
2023-08-18T16:58:23.705Z,30.47
2023-08-18T17:00:50.949Z,30.46
2023-08-18T17:03:19.145Z,30.45
2023-08-18T17:05:46.807Z,30.42
2023-08-18T17:08:13.793Z,30.39
2023-08-18T17:10:40.507Z,30.35
2023-08-18T17:13:07.424Z,30.33
2023-08-18T17:15:35.134Z,30.29
2023-08-18T17:18:01.976Z,30.24
2023-08-18T17:20:30.078Z,30.20
2023-08-18T17:22:56.832Z,30.17
2023-08-18T17:25:23.564Z,30.16
2023-08-18T17:27:50.245Z,30.12
2023-08-18T17:30:17.009Z,30.09
2023-08-18T17:32:43.802Z,30.04
2023-08-18T17:35:10.702Z,30.01
2023-08-18T17:37:38.824Z,29.97
2023-08-18T17:40:07.208Z,29.93
2023-08-18T17:42:33.938Z,29.88
2023-08-18T17:45:00.683Z,29.78
2023-08-18T17:47:27.424Z,29.70
2023-08-18T17:49:54.149Z,29.64
2023-08-18T17:52:20.958Z,29.59
2023-08-18T17:54:49.061Z,29.55
2023-08-18T17:57:15.821Z,29.50
2023-08-18T17:59:42.513Z,29.44
2023-08-18T18:02:09.281Z,29.37
2023-08-18T18:04:36.085Z,29.30
2023-08-18T18:07:02.868Z,29.24
2023-08-18T18:09:29.640Z,29.17
2023-08-18T18:11:57.806Z,29.09
2023-08-18T18:14:24.530Z,29.03
2023-08-18T18:16:51.281Z,29.01
2023-08-18T18:19:18.096Z,28.94
2023-08-18T18:21:44.838Z,28.88
2023-08-18T18:24:13.470Z,28.84
2023-08-18T18:26:40.290Z,28.81
2023-08-18T18:29:08.415Z,28.75
2023-08-18T18:31:35.576Z,28.69
2023-08-18T18:34:02.344Z,28.62
2023-08-18T18:36:29.032Z,28.57
2023-08-18T18:38:55.750Z,28.51
2023-08-18T18:41:22.472Z,28.45
2023-08-18T18:43:49.261Z,28.39
2023-08-18T18:46:17.366Z,28.36
2023-08-18T18:48:44.105Z,28.32
2023-08-18T18:51:10.837Z,28.28
2023-08-18T18:53:37.527Z,28.25
2023-08-18T18:56:04.643Z,28.22
2023-08-18T18:58:31.503Z,28.17
2023-08-18T19:00:59.384Z,28.14
2023-08-18T19:03:27.640Z,28.07
2023-08-18T19:05:54.579Z,28.01
2023-08-18T19:08:21.366Z,27.96
2023-08-18T19:10:48.808Z,27.91
2023-08-18T19:13:15.707Z,27.87
2023-08-18T19:15:42.468Z,27.81
2023-08-18T19:20:42.724Z,27.70
2023-08-18T19:23:09.465Z,27.68
2023-08-18T19:25:36.187Z,27.62
2023-08-18T19:28:03.127Z,27.58
2023-08-18T19:30:29.853Z,27.54
2023-08-18T19:32:56.655Z,27.53
2023-08-18T19:35:23.393Z,27.47
2023-08-18T19:37:51.476Z,27.44
2023-08-18T19:40:18.466Z,27.37
2023-08-18T19:42:45.207Z,27.32
2023-08-18T19:45:12.322Z,27.26
2023-08-18T19:47:39.066Z,27.23
2023-08-18T19:50:06.512Z,27.21
2023-08-18T19:52:33.663Z,27.14
2023-08-18T19:55:02.105Z,27.07
2023-08-18T19:57:28.818Z,26.99
2023-08-18T19:59:55.998Z,26.89
2023-08-18T20:02:22.708Z,26.81
2023-08-18T20:04:49.401Z,26.74
2023-08-18T20:07:16.121Z,26.67
2023-08-18T20:09:42.833Z,26.60
2023-08-18T20:12:10.982Z,26.54
2023-08-18T20:14:37.838Z,26.49
2023-08-18T20:17:04.623Z,26.42
2023-08-18T20:19:31.373Z,26.34
2023-08-18T20:21:58.104Z,26.25
2023-08-18T20:24:24.831Z,26.20
2023-08-18T20:26:51.641Z,26.13
2023-08-18T20:29:19.754Z,26.05
2023-08-18T20:31:46.523Z,26.00
2023-08-18T20:34:13.307Z,25.92
2023-08-18T20:36:40.042Z,25.89
2023-08-18T20:39:06.732Z,25.84
2023-08-18T20:41:33.452Z,25.80
2023-08-18T20:44:00.238Z,25.73
2023-08-18T20:46:28.340Z,25.67
2023-08-18T20:48:55.135Z,25.61
2023-08-18T20:51:21.874Z,25.53
2023-08-18T20:53:48.696Z,25.48
2023-08-18T20:56:15.455Z,25.45
2023-08-18T20:58:42.703Z,25.41
2023-08-18T21:01:09.459Z,25.38
2023-08-18T21:03:37.993Z,25.33
2023-08-18T21:06:04.788Z,25.26
2023-08-18T21:08:31.499Z,25.22
2023-08-18T21:10:58.204Z,25.16
2023-08-18T21:13:24.981Z,25.13
2023-08-18T21:15:51.672Z,25.11
2023-08-18T21:18:18.406Z,25.08
2023-08-18T21:20:46.522Z,25.06
2023-08-18T21:23:13.703Z,24.99
2023-08-18T21:25:40.517Z,24.93
2023-08-18T21:28:07.347Z,24.88
2023-08-18T21:30:34.067Z,24.84
2023-08-18T21:33:00.824Z,24.80
2023-08-18T21:35:27.612Z,24.76
2023-08-18T21:37:55.828Z,24.73
2023-08-18T21:40:22.590Z,24.69
2023-08-18T21:42:49.308Z,24.65
2023-08-18T21:45:16.093Z,24.61
2023-08-18T21:47:42.794Z,24.53
2023-08-18T21:50:10.826Z,24.49
2023-08-18T21:52:37.521Z,24.42
2023-08-18T21:55:07.450Z,24.38
2023-08-18T21:57:34.151Z,24.35
2023-08-18T22:00:00.999Z,24.31
2023-08-18T22:02:27.711Z,24.29
2023-08-18T22:04:54.468Z,24.28
2023-08-18T22:07:21.170Z,24.28
2023-08-18T22:09:47.918Z,24.24
2023-08-18T22:12:16.049Z,24.22
2023-08-18T22:14:42.749Z,24.17
2023-08-18T22:17:09.460Z,24.14
2023-08-18T22:19:36.146Z,24.08
2023-08-18T22:22:02.937Z,24.03
2023-08-18T22:24:29.648Z,24.00
2023-08-18T22:26:56.376Z,23.96
2023-08-18T22:29:24.675Z,23.90
2023-08-18T22:31:51.597Z,23.88
2023-08-18T22:34:18.330Z,23.88
2023-08-18T22:36:45.101Z,23.86
2023-08-18T22:39:11.971Z,23.81
2023-08-18T22:41:38.732Z,23.77
2023-08-18T22:44:05.716Z,23.73
2023-08-18T22:46:33.824Z,23.70
2023-08-18T22:49:00.871Z,23.66
2023-08-18T22:51:27.544Z,23.62
2023-08-18T22:53:54.275Z,23.57
2023-08-18T22:56:20.994Z,23.52
2023-08-18T22:58:47.694Z,23.48
2023-08-18T23:01:14.600Z,23.45
2023-08-18T23:03:42.794Z,23.43
2023-08-18T23:06:09.547Z,23.40
2023-08-18T23:08:36.285Z,23.32
2023-08-18T23:11:03.446Z,23.26
2023-08-18T23:13:30.318Z,23.21
2023-08-18T23:15:57.031Z,23.17
2023-08-18T23:18:23.806Z,23.11
2023-08-18T23:20:51.927Z,23.10
2023-08-18T23:23:18.663Z,23.08
2023-08-18T23:25:45.499Z,23.03
2023-08-18T23:28:12.258Z,23.00
2023-08-18T23:30:39.010Z,22.96
2023-08-18T23:33:05.759Z,22.90
2023-08-18T23:35:32.523Z,22.85
2023-08-18T23:38:00.634Z,22.79
2023-08-18T23:40:27.377Z,22.75
2023-08-18T23:42:54.085Z,22.72
2023-08-18T23:45:20.818Z,22.69
2023-08-18T23:47:47.571Z,22.64
2023-08-18T23:50:14.359Z,22.59
2023-08-18T23:52:41.194Z,22.56
2023-08-18T23:55:10.261Z,22.51
2023-08-18T23:57:36.991Z,22.46
